Time;durP1;ratioP1;P1;durP2;ratioP2;P2;SDS_P1;SDS_P2;PMS_P1;PMS_P2;Temp;Humidity;BMP_temperature;BMP_pressure;BME280_temperature;BME280_humidity;BME280_pressure;Samples;Min_cycle;Max_cycle;Signal;HPM_P1;HPM_P2
2024/01/09 00:05:59;;;;;;;5.00;2.60;;;;;;;-147.86;100.00;-17609.17;102927;1292;600297;-44
2024/01/09 00:08:28;;;;;;;8.50;4.10;;;;;;;-147.86;100.00;-17609.17;105120;1270;61140;-43
2024/01/09 00:11:00;;;;;;;7.50;3.40;;;;;;;-147.86;100.00;-17609.17;105113;1266;59450;-42
2024/01/09 00:13:27;;;;;;;4.80;3.00;;;;;;;-147.86;100.00;-17609.17;105042;1269;72223;-45
2024/01/09 00:15:55;;;;;;;9.10;3.70;;;;;;;-147.86;100.00;-17609.17;105053;1270;62942;-44
2024/01/09 00:18:23;;;;;;;6.50;2.60;;;;;;;-147.86;100.00;-17609.17;105025;1269;72632;-42
2024/01/09 00:20:51;;;;;;;8.00;4.20;;;;;;;-147.86;100.00;-17609.17;105077;1266;62460;-45
2024/01/09 00:23:19;;;;;;;7.60;4.00;;;;;;;-147.86;100.00;-17609.17;105248;1266;59281;-45
2024/01/09 00:25:47;;;;;;;9.50;4.20;;;;;;;-147.86;100.00;-17609.17;105254;1261;70933;-43
2024/01/09 00:28:15;;;;;;;5.70;3.10;;;;;;;-147.86;100.00;-17609.17;105220;1266;65306;-43
2024/01/09 00:30:43;;;;;;;9.20;3.80;;;;;;;-147.86;100.00;-17609.17;105276;1264;72656;-43
2024/01/09 00:33:11;;;;;;;4.70;3.50;;;;;;;-147.86;100.00;-17609.17;105200;1266;61100;-45
2024/01/09 00:35:39;;;;;;;5.80;2.10;;;;;;;-147.86;100.00;-17609.17;105258;1267;59701;-45
2024/01/09 00:38:07;;;;;;;5.20;2.80;;;;;;;-147.86;100.00;-17609.17;105197;1267;73111;-46
2024/01/09 00:40:35;;;;;;;7.70;4.30;;;;;;;-147.86;100.00;-17609.17;105269;1262;64038;-43
2024/01/09 00:43:03;;;;;;;15.40;3.40;;;;;;;-147.86;100.00;-17609.17;105253;1267;72306;-43
2024/01/09 00:45:30;;;;;;;3.50;2.40;;;;;;;-147.86;100.00;-17609.17;105252;1266;60466;-44
2024/01/09 00:48:01;;;;;;;8.50;4.10;;;;;;;-147.86;100.00;-17609.17;105245;1266;59772;-44
2024/01/09 00:50:29;;;;;;;9.80;3.10;;;;;;;-147.86;100.00;-17609.17;105233;1262;71506;-45
2024/01/09 00:52:56;;;;;;;8.60;3.60;;;;;;;-147.86;100.00;-17609.17;105220;1267;63985;-44
2024/01/09 00:55:24;;;;;;;8.60;3.70;;;;;;;-147.86;100.00;-17609.17;105259;1265;71414;-42
2024/01/09 00:57:52;;;;;;;8.40;3.40;;;;;;;-147.86;100.00;-17609.17;105192;1273;60011;-42
2024/01/09 01:00:21;;;;;;;4.10;2.50;;;;;;;-147.86;100.00;-17609.17;105262;1262;60046;-44
2024/01/09 01:02:49;;;;;;;8.70;3.30;;;;;;;-147.86;100.00;-17609.17;105181;1264;71942;-43
2024/01/09 01:05:17;;;;;;;4.60;3.00;;;;;;;-147.86;100.00;-17609.17;105240;1270;64064;-42
2024/01/09 01:07:45;;;;;;;8.10;3.20;;;;;;;-147.86;100.00;-17609.17;105174;1267;72464;-44
2024/01/09 01:10:13;;;;;;;8.00;3.30;;;;;;;-147.86;100.00;-17609.17;105120;1268;60374;-45
2024/01/09 01:12:47;;;;;;;8.50;3.60;;;;;;;-147.86;100.00;-17609.17;105135;1269;59650;-43
2024/01/09 01:15:15;;;;;;;5.70;3.00;;;;;;;-147.86;100.00;-17609.17;105157;1264;71751;-44
2024/01/09 01:17:44;;;;;;;7.00;3.20;;;;;;;-147.86;100.00;-17609.17;105547;1263;63934;-42
2024/01/09 01:20:12;;;;;;;6.10;3.20;;;;;;;-147.86;100.00;-17609.17;105574;1261;71365;-43
2024/01/09 01:22:41;;;;;;;10.50;3.80;;;;;;;-147.86;100.00;-17609.17;105559;1262;60622;-43
2024/01/09 01:25:09;;;;;;;5.70;3.00;;;;;;;-147.86;100.00;-17609.17;105586;1263;59702;-42
2024/01/09 01:27:38;;;;;;;9.70;3.30;;;;;;;-147.86;100.00;-17609.17;105628;1257;71567;-43
2024/01/09 01:30:06;;;;;;;6.60;2.90;;;;;;;-147.86;100.00;-17609.17;105621;1261;65129;-42
2024/01/09 01:32:35;;;;;;;3.40;1.50;;;;;;;-147.86;100.00;-17609.17;105581;1262;71346;-43
2024/01/09 01:35:03;;;;;;;10.00;3.60;;;;;;;-147.86;100.00;-17609.17;105635;1263;60460;-45
2024/01/09 01:37:32;;;;;;;10.20;3.30;;;;;;;-147.86;100.00;-17609.17;105629;1262;59561;-43
2024/01/09 01:39:59;;;;;;;8.20;3.30;;;;;;;-147.86;100.00;-17609.17;105576;1262;71463;-43
2024/01/09 01:42:27;;;;;;;7.70;3.20;;;;;;;-147.86;100.00;-17609.17;105638;1263;63973;-44
2024/01/09 01:44:55;;;;;;;6.70;3.40;;;;;;;-147.86;100.00;-17609.17;105593;1258;71456;-43
2024/01/09 01:47:23;;;;;;;9.20;4.50;;;;;;;-147.86;100.00;-17609.17;105549;1263;61620;-45
2024/01/09 01:49:51;;;;;;;8.80;3.70;;;;;;;-147.86;100.00;-17609.17;105574;1263;59804;-43
2024/01/09 01:52:19;;;;;;;6.00;3.20;;;;;;;-147.86;100.00;-17609.17;105550;1262;71126;-43
2024/01/09 01:54:46;;;;;;;10.20;3.50;;;;;;;-147.86;100.00;-17609.17;105529;1257;63728;-43
2024/01/09 01:57:14;;;;;;;11.70;3.90;;;;;;;-147.86;100.00;-17609.17;105617;1263;71415;-43
2024/01/09 01:59:43;;;;;;;8.10;3.30;;;;;;;-147.86;100.00;-17609.17;105533;1258;61655;-43
2024/01/09 02:02:10;;;;;;;5.10;2.60;;;;;;;-147.86;100.00;-17609.17;105596;1262;59662;-43
2024/01/09 02:04:40;;;;;;;14.70;4.10;;;;;;;-147.86;100.00;-17609.17;105499;1263;71766;-46
2024/01/09 02:07:09;;;;;;;13.70;4.80;;;;;;;-147.86;100.00;-17609.17;105282;1265;63959;-44
2024/01/09 02:09:36;;;;;;;10.50;3.30;;;;;;;-147.86;100.00;-17609.17;105574;1260;71414;-43
2024/01/09 02:12:05;;;;;;;14.40;4.10;;;;;;;-147.86;100.00;-17609.17;105539;1263;61383;-44
2024/01/09 02:14:34;;;;;;;11.50;4.00;;;;;;;-147.86;100.00;-17609.17;105551;1263;60015;-45
2024/01/09 02:17:02;;;;;;;7.50;3.50;;;;;;;-147.86;100.00;-17609.17;105410;1258;72845;-44
2024/01/09 02:19:30;;;;;;;9.20;4.70;;;;;;;-147.86;100.00;-17609.17;105382;1263;63358;-43
2024/01/09 02:21:58;;;;;;;15.40;4.70;;;;;;;-147.86;100.00;-17609.17;105558;1262;72158;-43
2024/01/09 02:24:26;;;;;;;4.70;2.50;;;;;;;-147.86;100.00;-17609.17;105545;1262;60929;-43
2024/01/09 02:27:00;;;;;;;15.70;3.80;;;;;;;-147.86;100.00;-17609.17;105588;1263;59644;-45
2024/01/09 02:29:33;;;;;;;7.10;3.70;;;;;;;-147.86;100.00;-17609.17;105555;1262;71849;-41
2024/01/09 02:32:03;;;;;;;10.00;4.20;;;;;;;-147.86;100.00;-17609.17;105419;1264;65086;-43
2024/01/09 03:06:35;;;;;;;12.00;3.80;;;;;;;-147.86;100.00;-17609.17;102641;1292;600242;-43
2024/01/09 03:09:03;;;;;;;8.30;3.30;;;;;;;-147.86;100.00;-17609.17;108739;1265;61675;-41
2024/01/09 03:11:30;;;;;;;8.50;3.50;;;;;;;-147.86;100.00;-17609.17;108702;1265;60412;-41
2024/01/09 03:13:58;;;;;;;9.40;2.80;;;;;;;-147.86;100.00;-17609.17;108675;1266;70774;-41
2024/01/09 03:16:25;;;;;;;8.20;3.80;;;;;;;-147.86;100.00;-17609.17;108679;1266;65311;-41
2024/01/09 03:18:54;;;;;;;8.10;3.80;;;;;;;-147.86;100.00;-17609.17;108659;1266;71361;-42
2024/01/09 03:21:22;;;;;;;11.00;4.20;;;;;;;-147.86;100.00;-17609.17;108586;1263;213480;-42
2024/01/09 03:23:49;;;;;;;10.00;3.90;;;;;;;-147.86;100.00;-17609.17;108753;1262;60031;-41
2024/01/09 03:26:17;;;;;;;6.60;2.80;;;;;;;-147.86;100.00;-17609.17;108762;1262;70722;-42
2024/01/09 03:28:45;;;;;;;7.40;2.80;;;;;;;-147.86;100.00;-17609.17;108806;1262;64040;-42
2024/01/09 03:31:22;;;;;;;16.60;4.40;;;;;;;-147.86;100.00;-17609.17;108718;1263;72512;-42
2024/01/09 03:33:49;;;;;;;10.40;4.10;;;;;;;-147.86;100.00;-17609.17;108737;1263;61746;-42
2024/01/09 03:36:17;;;;;;;4.90;2.60;;;;;;;-147.86;100.00;-17609.17;108773;1263;58528;-42
2024/01/09 03:38:45;;;;;;;7.30;2.90;;;;;;;-147.86;100.00;-17609.17;108775;1263;73015;-42
2024/01/09 03:41:13;;;;;;;6.70;2.70;;;;;;;-147.86;100.00;-17609.17;108759;1263;64351;-42
2024/01/09 03:43:41;;;;;;;5.00;2.50;;;;;;;-147.86;100.00;-17609.17;108744;1263;71246;-42
2024/01/09 03:46:08;;;;;;;12.60;5.00;;;;;;;-147.86;100.00;-17609.17;108785;1264;60451;-42
2024/01/09 03:48:36;;;;;;;9.60;4.00;;;;;;;-147.86;100.00;-17609.17;108756;1263;58810;-42
2024/01/09 03:51:04;;;;;;;16.70;4.70;;;;;;;-147.86;100.00;-17609.17;108773;1262;73030;-42
2024/01/09 03:53:32;;;;;;;14.30;4.40;;;;;;;-147.86;100.00;-17609.17;108765;1262;62942;-42
2024/01/09 03:55:59;;;;;;;10.20;4.20;;;;;;;-147.86;100.00;-17609.17;108760;1264;72640;-42
2024/01/09 03:58:27;;;;;;;9.10;3.60;;;;;;;-147.86;100.00;-17609.17;108765;1262;60692;-42
2024/01/09 04:00:54;;;;;;;12.00;5.00;;;;;;;-147.86;100.00;-17609.17;108773;1262;58738;-42
2024/01/09 04:06:25;;;;;;;6.70;3.40;;;;;;;-147.86;100.00;-17609.17;102930;1293;600616;-45
2024/01/09 04:08:53;;;;;;;11.60;3.00;;;;;;;-147.86;100.00;-17609.17;105161;1268;60386;-44
2024/01/09 04:11:21;;;;;;;8.90;3.80;;;;;;;-147.86;100.00;-17609.17;105029;1265;59986;-43
2024/01/09 04:13:49;;;;;;;12.60;4.50;;;;;;;-147.86;100.00;-17609.17;105054;1264;70008;-43
2024/01/09 04:16:18;;;;;;;15.30;4.50;;;;;;;-147.86;100.00;-17609.17;105215;1266;63941;-44
2024/01/09 04:18:46;;;;;;;10.50;4.70;;;;;;;-147.86;100.00;-17609.17;105647;1257;71748;-44
2024/01/09 05:06:59;;;;;;;19.40;6.20;;;;;;;-147.86;100.00;-17609.17;103197;1288;600780;-43
2024/01/09 05:09:27;;;;;;;9.90;4.30;;;;;;;-147.86;100.00;-17609.17;104873;1266;61611;-43
2024/01/09 05:11:55;;;;;;;10.60;4.20;;;;;;;-147.86;100.00;-17609.17;104867;1265;59390;-44
2024/01/09 05:14:23;;;;;;;14.30;4.80;;;;;;;-147.86;100.00;-17609.17;104855;1266;70991;-43
2024/01/09 05:16:51;;;;;;;24.00;6.50;;;;;;;-147.86;100.00;-17609.17;104866;1270;63957;-44
2024/01/09 05:19:20;;;;;;;17.50;4.90;;;;;;;-147.86;100.00;-17609.17;104864;1266;71419;-42
2024/01/09 05:21:48;;;;;;;15.20;5.00;;;;;;;-147.86;100.00;-17609.17;104983;1267;204024;-44
2024/01/09 05:24:15;;;;;;;16.80;6.30;;;;;;;-147.86;100.00;-17609.17;105137;1264;60653;-43
2024/01/09 05:26:43;;;;;;;16.20;6.00;;;;;;;-147.86;100.00;-17609.17;105163;1263;72180;-43
2024/01/09 05:29:11;;;;;;;17.60;6.10;;;;;;;-147.86;100.00;-17609.17;105109;1263;63916;-44
2024/01/09 05:31:43;;;;;;;18.40;6.30;;;;;;;-147.86;100.00;-17609.17;105175;1267;70543;-44
2024/01/09 05:34:11;;;;;;;12.60;6.10;;;;;;;-147.86;100.00;-17609.17;105173;1263;60393;-45
2024/01/09 05:36:39;;;;;;;13.20;6.20;;;;;;;-147.86;100.00;-17609.17;105163;1267;59519;-43
2024/01/09 05:39:07;;;;;;;11.20;5.50;;;;;;;-147.86;100.00;-17609.17;105165;1263;71586;-43
2024/01/09 05:41:35;;;;;;;15.50;5.40;;;;;;;-147.86;100.00;-17609.17;105199;1263;63932;-43
2024/01/09 05:44:03;;;;;;;15.20;6.80;;;;;;;-147.86;100.00;-17609.17;105138;1262;72786;-45
2024/01/09 10:58:50;;;;;;;6.50;3.20;;;;;;;-147.86;100.00;-17609.17;102853;1292;600915;-42
2024/01/09 11:01:18;;;;;;;14.30;4.80;;;;;;;-147.86;100.00;-17609.17;104973;1268;61788;-42
2024/01/09 11:03:47;;;;;;;13.10;5.90;;;;;;;-147.86;100.00;-17609.17;104837;1265;60640;-42
2024/01/09 11:06:18;;;;;;;13.70;5.00;;;;;;;-147.86;100.00;-17609.17;104909;1265;71196;-42
2024/01/09 11:08:50;;;;;;;6.30;3.70;;;;;;;-147.86;100.00;-17609.17;104887;1268;65683;-42
2024/01/09 11:11:18;;;;;;;9.30;4.50;;;;;;;-147.86;100.00;-17609.17;104694;1267;322493;-42
2024/01/09 11:13:47;;;;;;;12.90;5.40;;;;;;;-147.86;100.00;-17609.17;105126;1264;62571;-42
2024/01/09 11:16:15;;;;;;;10.80;5.40;;;;;;;-147.86;100.00;-17609.17;105201;1264;60813;-41
2024/01/09 11:18:43;;;;;;;8.50;5.20;;;;;;;-147.86;100.00;-17609.17;104853;1262;71731;-41
2024/01/09 11:21:12;;;;;;;10.30;4.90;;;;;;;-147.86;100.00;-17609.17;105204;1269;64230;-42
2024/01/09 11:23:42;;;;;;;7.30;4.80;;;;;;;-147.86;100.00;-17609.17;105168;1263;73362;-42
2024/01/09 11:26:14;;;;;;;10.30;4.90;;;;;;;-147.86;100.00;-17609.17;105151;1263;61902;-43
2024/01/09 11:28:43;;;;;;;11.30;5.50;;;;;;;-147.86;100.00;-17609.17;105220;1264;59915;-43
2024/01/09 11:31:17;;;;;;;6.50;3.50;;;;;;;-147.86;100.00;-17609.17;105233;1269;73000;-42
2024/01/09 11:33:52;;;;;;;10.00;5.20;;;;;;;-147.86;100.00;-17609.17;105215;1264;65095;-42
2024/01/09 11:36:24;;;;;;;3.70;2.10;;;;;;;-147.86;100.00;-17609.17;104930;1264;72678;-42
2024/01/09 11:38:53;;;;;;;12.20;5.10;;;;;;;-147.86;100.00;-17609.17;105187;1267;63786;-43
2024/01/09 11:41:23;;;;;;;13.10;6.00;;;;;;;-147.86;100.00;-17609.17;105236;1264;59746;-43
2024/01/09 11:43:58;;;;;;;11.30;5.70;;;;;;;-147.86;100.00;-17609.17;105208;1267;73685;-42
2024/01/09 11:46:27;;;;;;;10.70;5.20;;;;;;;-147.86;100.00;-17609.17;105182;1269;65111;-43
2024/01/09 11:48:55;;;;;;;12.10;5.60;;;;;;;-147.86;100.00;-17609.17;105218;1264;71452;-42
2024/01/09 11:51:24;;;;;;;11.00;4.80;;;;;;;-147.86;100.00;-17609.17;105207;1264;62006;-44
2024/01/09 11:53:52;;;;;;;9.10;4.60;;;;;;;-147.86;100.00;-17609.17;105218;1269;59650;-42
2024/01/09 11:56:21;;;;;;;11.30;5.60;;;;;;;-147.86;100.00;-17609.17;105147;1270;75352;-42
2024/01/09 11:58:52;;;;;;;11.20;5.50;;;;;;;-147.86;100.00;-17609.17;105193;1269;65477;-43
2024/01/09 12:01:21;;;;;;;11.00;4.20;;;;;;;-147.86;100.00;-17609.17;105193;1264;71819;-43
2024/01/09 12:03:58;;;;;;;12.90;5.10;;;;;;;-147.86;100.00;-17609.17;105245;1264;62103;-43
2024/01/09 12:06:29;;;;;;;5.10;3.00;;;;;;;-147.86;100.00;-17609.17;105242;1264;59560;-42
2024/01/09 12:08:58;;;;;;;6.10;2.90;;;;;;;-147.86;100.00;-17609.17;105219;1264;71757;-42
2024/01/09 12:11:26;;;;;;;3.90;2.40;;;;;;;-147.86;100.00;-17609.17;105175;1264;65819;-43
2024/01/09 12:14:00;;;;;;;4.00;2.50;;;;;;;-147.86;100.00;-17609.17;105609;1257;72447;-42
2024/01/09 12:16:29;;;;;;;3.30;2.60;;;;;;;-147.86;100.00;-17609.17;105561;1257;61957;-42
2024/01/09 12:18:57;;;;;;;3.10;2.40;;;;;;;-147.86;100.00;-17609.17;105654;1262;59733;-43
2024/01/09 12:21:30;;;;;;;5.50;2.50;;;;;;;-147.86;100.00;-17609.17;105569;1260;73377;-42
2024/01/09 12:23:59;;;;;;;3.90;2.30;;;;;;;-147.86;100.00;-17609.17;105649;1261;64520;-43
2024/01/09 12:26:30;;;;;;;5.90;2.40;;;;;;;-147.86;100.00;-17609.17;105596;1262;74385;-43
2024/01/09 12:28:58;;;;;;;4.60;2.70;;;;;;;-147.86;100.00;-17609.17;105543;1258;61281;-42
2024/01/09 12:31:26;;;;;;;6.00;3.30;;;;;;;-147.86;100.00;-17609.17;105616;1256;61423;-42
2024/01/09 12:33:53;;;;;;;6.40;2.90;;;;;;;-147.86;100.00;-17609.17;105576;1257;75296;-42
2024/01/09 12:36:24;;;;;;;1.70;1.60;;;;;;;-147.86;100.00;-17609.17;105610;1257;65654;-44
2024/01/09 12:38:52;;;;;;;5.40;2.80;;;;;;;-147.86;100.00;-17609.17;105613;1258;73864;-42
2024/01/09 12:41:23;;;;;;;8.70;3.00;;;;;;;-147.86;100.00;-17609.17;105534;1258;61599;-42
2024/01/09 12:43:52;;;;;;;6.20;3.00;;;;;;;-147.86;100.00;-17609.17;105590;1257;60305;-42
2024/01/09 12:46:21;;;;;;;5.50;3.30;;;;;;;-147.86;100.00;-17609.17;105639;1263;74843;-42
2024/01/09 12:48:49;;;;;;;7.20;3.60;;;;;;;-147.86;100.00;-17609.17;105619;1257;63944;-42
2024/01/09 12:51:18;;;;;;;7.90;3.30;;;;;;;-147.86;100.00;-17609.17;105581;1258;72693;-43
2024/01/09 12:53:47;;;;;;;5.60;2.30;;;;;;;-147.86;100.00;-17609.17;105539;1257;61606;-42
2024/01/09 12:56:15;;;;;;;8.50;4.40;;;;;;;-147.86;100.00;-17609.17;105608;1261;59989;-43
2024/01/09 12:58:44;;;;;;;5.00;2.90;;;;;;;-147.86;100.00;-17609.17;105597;1258;71472;-42
2024/01/09 13:01:16;;;;;;;10.90;4.60;;;;;;;-147.86;100.00;-17609.17;105643;1260;64201;-42
2024/01/09 13:03:45;;;;;;;8.60;4.50;;;;;;;-147.86;100.00;-17609.17;105642;1256;75134;-42
2024/01/09 13:06:13;;;;;;;9.60;4.10;;;;;;;-147.86;100.00;-17609.17;105604;1261;64391;-42
2024/01/09 13:08:41;;;;;;;8.80;4.00;;;;;;;-147.86;100.00;-17609.17;105618;1257;59890;-42
2024/01/09 13:11:09;;;;;;;7.70;4.40;;;;;;;-147.86;100.00;-17609.17;105610;1257;74290;-41
2024/01/09 13:13:40;;;;;;;15.20;4.90;;;;;;;-147.86;100.00;-17609.17;105663;1263;65381;-43
2024/01/09 13:16:08;;;;;;;4.70;3.90;;;;;;;-147.86;100.00;-17609.17;105554;1256;74522;-41
2024/01/09 13:18:36;;;;;;;7.20;4.10;;;;;;;-147.86;100.00;-17609.17;105629;1257;62074;-42
2024/01/09 13:21:05;;;;;;;8.00;4.30;;;;;;;-147.86;100.00;-17609.17;105662;1258;59797;-42
2024/01/09 13:23:34;;;;;;;10.10;4.50;;;;;;;-147.86;100.00;-17609.17;105603;1258;75362;-42
2024/01/09 13:26:18;;;;;;;13.50;5.10;;;;;;;-147.86;100.00;-17609.17;105624;1260;65568;-42
2024/01/09 13:28:47;;;;;;;8.30;4.70;;;;;;;-147.86;100.00;-17609.17;105610;1262;72540;-43
2024/01/09 13:31:35;;;;;;;3.60;2.20;;;;;;;-147.86;100.00;-17609.17;105584;1258;62013;-43
2024/01/09 13:34:03;;;;;;;7.00;4.30;;;;;;;-147.86;100.00;-17609.17;105672;1260;59583;-43
2024/01/09 13:36:31;;;;;;;10.50;3.00;;;;;;;-147.86;100.00;-17609.17;105579;1261;72956;-42
2024/01/09 13:38:59;;;;;;;6.70;4.70;;;;;;;-147.86;100.00;-17609.17;105601;1263;65200;-43
2024/01/09 13:41:27;;;;;;;10.20;5.50;;;;;;;-147.86;100.00;-17609.17;105613;1260;73312;-43
2024/01/09 13:43:58;;;;;;;10.70;5.50;;;;;;;-147.86;100.00;-17609.17;105585;1260;63895;-42
2024/01/09 13:46:26;;;;;;;7.10;4.30;;;;;;;-147.86;100.00;-17609.17;105635;1255;59839;-42
2024/01/09 13:48:54;;;;;;;6.40;3.60;;;;;;;-147.86;100.00;-17609.17;105596;1260;73172;-42
2024/01/09 13:51:22;;;;;;;7.90;4.60;;;;;;;-147.86;100.00;-17609.17;105604;1260;65059;-41
2024/01/09 13:53:53;;;;;;;11.20;5.30;;;;;;;-147.86;100.00;-17609.17;105623;1257;72389;-43
2024/01/09 13:56:20;;;;;;;10.60;5.70;;;;;;;-147.86;100.00;-17609.17;105564;1260;64503;-43
2024/01/09 13:58:49;;;;;;;11.10;4.30;;;;;;;-147.86;100.00;-17609.17;105632;1260;59814;-42
2024/01/09 14:01:17;;;;;;;11.40;4.60;;;;;;;-147.86;100.00;-17609.17;105606;1260;71740;-43
2024/01/09 14:04:00;;;;;;;10.10;5.30;;;;;;;-147.86;100.00;-17609.17;105908;1251;67935;-42
2024/01/09 14:06:30;;;;;;;8.70;4.70;;;;;;;-147.86;100.00;-17609.17;105938;1256;72575;-41
2024/01/09 14:08:58;;;;;;;10.80;5.40;;;;;;;-147.86;100.00;-17609.17;105917;1257;63875;-42
2024/01/09 14:11:26;;;;;;;8.80;5.30;;;;;;;-147.86;100.00;-17609.17;105938;1251;61221;-41
2024/01/09 14:13:55;;;;;;;8.80;4.70;;;;;;;-147.86;100.00;-17609.17;105914;1256;73001;-42
2024/01/09 14:16:22;;;;;;;5.00;3.20;;;;;;;-147.86;100.00;-17609.17;105928;1257;65119;-42
2024/01/09 14:18:51;;;;;;;12.60;5.60;;;;;;;-147.86;100.00;-17609.17;105919;1252;72509;-42
2024/01/09 14:21:19;;;;;;;9.20;4.10;;;;;;;-147.86;100.00;-17609.17;105891;1261;60728;-42
2024/01/09 14:23:48;;;;;;;8.50;4.10;;;;;;;-147.86;100.00;-17609.17;105999;1251;59816;-42
2024/01/09 14:26:20;;;;;;;8.60;4.50;;;;;;;-147.86;100.00;-17609.17;105928;1256;72833;-42
2024/01/09 14:28:48;;;;;;;8.80;4.90;;;;;;;-147.86;100.00;-17609.17;105921;1256;66313;-42
2024/01/09 14:31:16;;;;;;;9.20;4.30;;;;;;;-147.86;100.00;-17609.17;105953;1257;73411;-42
2024/01/09 14:33:45;;;;;;;6.60;3.80;;;;;;;-147.86;100.00;-17609.17;105885;1257;60203;-42
2024/01/09 14:36:13;;;;;;;8.50;4.40;;;;;;;-147.86;100.00;-17609.17;105927;1256;60343;-43
2024/01/09 14:38:41;;;;;;;9.10;4.10;;;;;;;-147.86;100.00;-17609.17;105910;1256;74030;-43
2024/01/09 14:41:26;;;;;;;7.20;4.50;;;;;;;-147.86;100.00;-17609.17;105883;1257;66390;-44
2024/01/09 14:43:53;;;;;;;4.30;2.60;;;;;;;-147.86;100.00;-17609.17;105900;1256;73404;-42
2024/01/09 14:46:21;;;;;;;10.20;4.20;;;;;;;-147.86;100.00;-17609.17;105914;1256;60685;-43
2024/01/09 14:48:49;;;;;;;7.40;2.70;;;;;;;-147.86;100.00;-17609.17;105906;1257;60375;-43
2024/01/09 14:51:18;;;;;;;8.80;3.80;;;;;;;-147.86;100.00;-17609.17;105884;1256;73386;-43
2024/01/09 14:53:45;;;;;;;4.40;2.60;;;;;;;-147.86;100.00;-17609.17;105910;1257;65644;-42
2024/01/09 14:56:20;;;;;;;15.60;4.50;;;;;;;-147.86;100.00;-17609.17;105890;1256;73228;-42
2024/01/09 14:58:48;;;;;;;;;;;;;;;-147.86;100.00;-17609.17;105939;1256;60609;-42
2024/01/09 15:01:33;;;;;;;6.50;3.50;;;;;;;-147.86;100.00;-17609.17;105888;1257;61901;-42
2024/01/09 15:04:02;;;;;;;6.40;3.90;;;;;;;-147.86;100.00;-17609.17;105935;1256;72936;-42
2024/01/09 15:06:31;;;;;;;11.00;4.50;;;;;;;-147.86;100.00;-17609.17;105838;1251;64718;-42
2024/01/09 15:08:59;;;;;;;8.10;4.50;;;;;;;-147.86;100.00;-17609.17;105898;1257;72925;-42
2024/01/09 15:11:26;;;;;;;8.50;4.00;;;;;;;-147.86;100.00;-17609.17;105938;1256;62620;-43
2024/01/09 15:13:55;;;;;;;8.90;3.80;;;;;;;-147.86;100.00;-17609.17;105900;1257;60557;-41
2024/01/09 15:16:22;;;;;;;11.00;4.00;;;;;;;-147.86;100.00;-17609.17;105897;1256;74324;-42
2024/01/09 15:18:51;;;;;;;9.30;4.20;;;;;;;-147.86;100.00;-17609.17;105915;1256;65516;-43
2024/01/09 15:21:19;;;;;;;8.50;4.30;;;;;;;-147.86;100.00;-17609.17;105946;1257;72495;-42
2024/01/09 15:23:49;;;;;;;10.40;3.60;;;;;;;-147.86;100.00;-17609.17;105884;1256;60814;-42
2024/01/09 15:26:17;;;;;;;6.80;4.30;;;;;;;-147.86;100.00;-17609.17;105915;1252;61905;-43
2024/01/09 15:28:45;;;;;;;8.90;4.50;;;;;;;-147.86;100.00;-17609.17;105874;1256;73618;-44
2024/01/09 15:31:18;;;;;;;9.70;4.20;;;;;;;-147.86;100.00;-17609.17;105891;1257;64630;-43
2024/01/09 15:33:47;;;;;;;4.20;3.20;;;;;;;-147.86;100.00;-17609.17;105889;1256;73019;-42
2024/01/09 15:36:16;;;;;;;10.00;4.80;;;;;;;-147.86;100.00;-17609.17;105906;1257;61706;-43
2024/01/09 15:38:43;;;;;;;8.40;3.90;;;;;;;-147.86;100.00;-17609.17;105953;1257;60639;-42
2024/01/09 15:41:12;;;;;;;10.50;4.30;;;;;;;-147.86;100.00;-17609.17;105894;1257;72895;-42
2024/01/09 15:43:40;;;;;;;10.00;4.50;;;;;;;-147.86;100.00;-17609.17;105879;1257;65691;-42
2024/01/09 15:46:08;;;;;;;13.60;5.40;;;;;;;-147.86;100.00;-17609.17;105920;1255;72682;-43
2024/01/09 15:48:36;;;;;;;8.80;3.90;;;;;;;-147.86;100.00;-17609.17;105874;1257;61036;-42
2024/01/09 15:51:07;;;;;;;12.30;4.30;;;;;;;-147.86;100.00;-17609.17;105870;1256;60575;-42
2024/01/09 15:53:35;;;;;;;15.20;4.90;;;;;;;-147.86;100.00;-17609.17;105921;1251;74960;-42
2024/01/09 15:56:03;;;;;;;8.10;4.60;;;;;;;-147.86;100.00;-17609.17;105905;1257;67560;-42
2024/01/09 15:58:31;;;;;;;12.60;4.50;;;;;;;-147.86;100.00;-17609.17;105908;1257;73168;-42
2024/01/09 16:00:59;;;;;;;7.10;4.30;;;;;;;-147.86;100.00;-17609.17;105932;1254;62147;-43
2024/01/09 16:03:27;;;;;;;8.30;4.00;;;;;;;-147.86;100.00;-17609.17;105905;1251;61979;-43
2024/01/09 16:05:55;;;;;;;8.70;4.60;;;;;;;-147.86;100.00;-17609.17;105926;1256;74359;-43
2024/01/09 16:08:23;;;;;;;5.90;3.30;;;;;;;-147.86;100.00;-17609.17;105913;1251;66271;-44
2024/01/09 16:10:51;;;;;;;12.10;5.60;;;;;;;-147.86;100.00;-17609.17;105855;1256;73675;-42
2024/01/09 16:13:20;;;;;;;10.20;5.00;;;;;;;-147.86;100.00;-17609.17;105893;1257;63952;-42
2024/01/09 16:15:47;;;;;;;11.00;4.90;;;;;;;-147.86;100.00;-17609.17;105933;1256;60540;-42
2024/01/09 16:18:16;;;;;;;9.20;4.70;;;;;;;-147.86;100.00;-17609.17;105928;1258;73660;-43
2024/01/09 16:20:45;;;;;;;9.60;5.60;;;;;;;-147.86;100.00;-17609.17;105943;1257;65009;-42
2024/01/09 16:23:13;;;;;;;12.00;5.50;;;;;;;-147.86;100.00;-17609.17;105858;1256;72853;-43
2024/01/09 16:25:41;;;;;;;12.80;5.20;;;;;;;-147.86;100.00;-17609.17;105917;1257;60546;-43
2024/01/09 16:28:10;;;;;;;10.40;4.60;;;;;;;-147.86;100.00;-17609.17;105948;1257;60600;-43
2024/01/09 16:30:38;;;;;;;13.40;5.40;;;;;;;-147.86;100.00;-17609.17;105885;1257;73710;-44
2024/01/09 16:33:06;;;;;;;15.40;5.80;;;;;;;-147.86;100.00;-17609.17;105689;1257;65100;-43
2024/01/09 16:35:34;;;;;;;13.70;5.80;;;;;;;-147.86;100.00;-17609.17;105953;1257;72971;-41
2024/01/09 16:38:02;;;;;;;10.40;4.70;;;;;;;-147.86;100.00;-17609.17;105861;1257;60887;-43
2024/01/09 16:40:34;;;;;;;9.50;4.80;;;;;;;-147.86;100.00;-17609.17;105941;1256;60729;-42
2024/01/09 16:43:03;;;;;;;8.20;4.40;;;;;;;-147.86;100.00;-17609.17;105910;1258;74267;-42
2024/01/09 16:45:31;;;;;;;11.90;5.10;;;;;;;-147.86;100.00;-17609.17;105870;1256;66150;-42
2024/01/09 16:47:59;;;;;;;8.50;5.60;;;;;;;-147.86;100.00;-17609.17;105890;1257;72995;-43
2024/01/09 16:50:27;;;;;;;9.90;5.60;;;;;;;-147.86;100.00;-17609.17;105916;1256;62298;-45
2024/01/09 16:52:55;;;;;;;10.70;5.90;;;;;;;-147.86;100.00;-17609.17;105889;1257;60510;-42
2024/01/09 16:55:24;;;;;;;10.00;4.50;;;;;;;-147.86;100.00;-17609.17;105949;1256;73879;-43
2024/01/09 16:57:52;;;;;;;12.90;4.60;;;;;;;-147.86;100.00;-17609.17;105890;1257;65319;-43
2024/01/09 17:00:21;;;;;;;12.30;3.60;;;;;;;-147.86;100.00;-17609.17;105939;1251;73010;-43
2024/01/09 17:02:49;;;;;;;7.80;5.20;;;;;;;-147.86;100.00;-17609.17;105876;1257;60828;-42
2024/01/09 17:05:19;;;;;;;8.50;4.80;;;;;;;-147.86;100.00;-17609.17;105994;1258;60559;-43
2024/01/09 17:07:46;;;;;;;8.40;3.90;;;;;;;-147.86;100.00;-17609.17;105920;1257;72543;-44
2024/01/09 17:10:15;;;;;;;9.90;4.10;;;;;;;-147.86;100.00;-17609.17;105886;1256;65553;-43
2024/01/09 17:12:43;;;;;;;7.20;4.90;;;;;;;-147.86;100.00;-17609.17;105686;1251;73017;-43
2024/01/09 17:15:10;;;;;;;9.80;5.30;;;;;;;-147.86;100.00;-17609.17;105892;1256;62781;-42
2024/01/09 17:17:38;;;;;;;11.40;4.80;;;;;;;-147.86;100.00;-17609.17;105913;1257;60959;-43
2024/01/09 17:20:07;;;;;;;11.90;4.90;;;;;;;-147.86;100.00;-17609.17;105891;1256;73526;-43
2024/01/09 17:22:35;;;;;;;8.30;4.40;;;;;;;-147.86;100.00;-17609.17;105946;1266;65231;-43
2024/01/09 17:25:10;;;;;;;3.20;2.00;;;;;;;-147.86;100.00;-17609.17;105890;1256;72446;-42
2024/01/09 17:27:38;;;;;;;10.20;4.60;;;;;;;-147.86;100.00;-17609.17;105878;1256;60565;-42
2024/01/09 17:30:07;;;;;;;13.10;6.00;;;;;;;-147.86;100.00;-17609.17;105873;1251;60530;-43
2024/01/09 17:32:35;;;;;;;11.60;5.30;;;;;;;-147.86;100.00;-17609.17;105904;1257;74200;-43
2024/01/09 17:35:03;;;;;;;12.80;5.00;;;;;;;-147.86;100.00;-17609.17;105894;1256;65290;-43
2024/01/09 17:37:31;;;;;;;11.60;5.30;;;;;;;-147.86;100.00;-17609.17;105925;1257;72955;-42